Time;durP1;ratioP1;P1;durP2;ratioP2;P2;SDS_P1;SDS_P2;PMS_P1;PMS_P2;Temp;Humidity;BMP_temperature;BMP_pressure;BME280_temperature;BME280_humidity;BME280_pressure;Samples;Min_cycle;Max_cycle;Signal;HPM_P1;HPM_P2
2021/07/29 00:00:56;;;;;;;10.85;2.63;;;;;;;14.86;79.44;100911.78;4946567;28;20054;-47
2021/07/29 00:03:21;;;;;;;8.40;3.05;;;;;;;14.81;79.59;100897.81;4951116;28;20058;-49
2021/07/29 00:05:48;;;;;;;6.57;2.42;;;;;;;14.71;78.90;100882.09;4949133;28;20395;-47
2021/07/29 00:08:14;;;;;;;9.57;2.28;;;;;;;14.71;77.68;100897.84;4948016;28;20367;-47
2021/07/29 00:10:39;;;;;;;4.90;2.10;;;;;;;14.67;77.84;100899.59;4952172;28;20371;-46
2021/07/29 00:13:04;;;;;;;6.28;2.28;;;;;;;14.57;77.89;100890.03;4953509;28;20027;-49
2021/07/29 00:15:30;;;;;;;4.97;2.10;;;;;;;14.56;78.05;100898.75;4952347;28;20360;-48
2021/07/29 00:20:23;;;;;;;7.72;2.20;;;;;;;14.51;79.23;100883.03;4948812;28;20042;-48
2021/07/29 00:22:52;;;;;;;7.50;2.58;;;;;;;14.55;79.52;100895.25;4951408;28;20134;-51
2021/07/29 00:25:21;;;;;;;9.63;2.83;;;;;;;14.48;79.68;100892.66;4945424;28;20046;-49
2021/07/29 00:27:47;;;;;;;9.77;2.78;;;;;;;14.51;79.39;100888.28;4948437;28;20541;-47
2021/07/29 00:30:13;;;;;;;11.65;3.00;;;;;;;14.50;80.02;100878.66;4943417;28;20146;-50
2021/07/29 00:32:40;;;;;;;11.48;3.25;;;;;;;14.51;81.26;100871.69;4944200;28;20042;-47
2021/07/29 00:35:07;;;;;;;8.13;2.88;;;;;;;14.51;81.37;100867.31;4950033;28;20031;-49
2021/07/29 00:37:33;;;;;;;11.35;2.90;;;;;;;14.55;80.29;100870.78;4948943;28;20098;-50
2021/07/29 00:39:58;;;;;;;11.23;3.03;;;;;;;14.57;80.65;100872.53;4950432;28;20034;-51
2021/07/29 00:42:24;;;;;;;14.65;3.65;;;;;;;14.61;81.99;100870.75;4950852;28;20026;-47
2021/07/29 00:44:49;;;;;;;14.75;4.10;;;;;;;14.71;82.05;100871.59;4949970;28;20031;-48
2021/07/29 00:47:16;;;;;;;16.95;3.67;;;;;;;14.78;81.57;100863.69;4949786;28;20122;-50
2021/07/29 00:49:42;;;;;;;16.90;4.15;;;;;;;14.87;81.31;100866.31;4949443;28;20058;-50
2021/07/29 00:52:08;;;;;;;18.85;4.35;;;;;;;14.93;81.95;100857.53;4949225;28;20074;-49
2021/07/29 00:54:34;;;;;;;18.88;4.18;;;;;;;14.99;82.02;100868.00;4949305;28;20175;-49
2021/07/29 00:57:04;;;;;;;18.20;4.80;;;;;;;15.09;81.89;100859.19;4951402;28;20691;-48
2021/07/29 00:59:29;;;;;;;22.65;4.65;;;;;;;15.13;81.57;100858.28;4947923;28;20398;-52
2021/07/29 01:01:55;;;;;;;26.98;4.60;;;;;;;15.13;81.89;100857.41;4945042;28;20756;-46
2021/07/29 01:04:20;;;;;;;22.42;4.95;;;;;;;15.14;82.18;100860.03;4951635;28;20035;-51
2021/07/29 01:06:46;;;;;;;28.65;5.43;;;;;;;15.16;82.25;100860.03;4949501;28;20058;-49
2021/07/29 01:09:11;;;;;;;28.85;5.63;;;;;;;15.20;82.40;100867.00;4963474;28;20038;-48
2021/07/29 01:11:41;;;;;;;27.13;5.60;;;;;;;15.22;82.44;100874.00;4948112;28;20034;-51
2021/07/29 01:14:07;;;;;;;25.55;5.32;;;;;;;15.27;82.26;100872.22;4949966;28;20046;-49
2021/07/29 01:16:33;;;;;;;22.95;5.25;;;;;;;15.36;82.02;100874.78;4947524;28;20652;-49
2021/07/29 01:18:59;;;;;;;15.40;3.28;;;;;;;15.43;80.05;100883.47;4948366;28;20042;-53
2021/07/29 01:21:26;;;;;;;13.10;2.90;;;;;;;15.43;77.87;100889.59;4948523;28;20514;-49
2021/07/29 01:23:52;;;;;;;14.07;2.65;;;;;;;15.41;76.84;100890.53;4949453;28;20030;-51
2021/07/29 01:26:17;;;;;;;11.80;2.55;;;;;;;15.35;75.84;100883.56;4965983;28;20478;-48
2021/07/29 01:28:42;;;;;;;11.88;2.83;;;;;;;15.23;77.44;100883.63;4945068;28;20030;-46
2021/07/29 01:31:08;;;;;;;14.88;2.65;;;;;;;15.03;76.24;100875.84;4949259;28;20069;-48
2021/07/29 01:33:33;;;;;;;11.05;2.50;;;;;;;14.97;74.97;100886.38;4949736;28;20070;-48
2021/07/29 01:35:58;;;;;;;10.88;2.30;;;;;;;14.87;75.01;100883.78;4952124;28;20268;-52
2021/07/29 01:38:24;;;;;;;15.45;2.75;;;;;;;14.74;76.10;100885.59;4948307;28;20406;-47
2021/07/29 01:40:49;;;;;;;15.00;2.42;;;;;;;14.68;76.40;100883.00;4947636;28;20418;-47
2021/07/29 01:43:14;;;;;;;15.30;2.72;;;;;;;14.62;76.52;100877.75;4950173;28;20073;-49
2021/07/29 01:45:40;;;;;;;9.68;2.40;;;;;;;14.65;76.03;100877.72;4948559;28;20170;-50
2021/07/29 01:48:05;;;;;;;7.28;2.22;;;;;;;14.55;76.46;100876.91;4950041;28;20038;-49
2021/07/29 01:50:31;;;;;;;9.55;2.45;;;;;;;14.48;76.60;100887.41;4946503;28;20030;-46
2021/07/29 01:52:57;;;;;;;10.13;2.20;;;;;;;14.37;76.66;100890.06;4952051;28;20462;-47
2021/07/29 01:55:23;;;;;;;11.25;2.22;;;;;;;14.33;76.44;100883.06;4948856;28;20041;-47
2021/07/29 01:57:48;;;;;;;7.57;2.20;;;;;;;14.26;76.67;100873.44;4950701;28;20030;-46
2021/07/29 02:00:14;;;;;;;8.95;1.80;;;;;;;14.23;76.58;100878.69;4948236;28;20514;-50
2021/07/29 02:02:39;;;;;;;8.02;2.13;;;;;;;14.15;78.01;100873.44;4951111;28;20022;-51
2021/07/29 02:05:05;;;;;;;8.70;2.13;;;;;;;14.08;77.94;100870.84;4949673;28;20509;-46
2021/07/29 02:07:30;;;;;;;8.93;1.90;;;;;;;14.04;76.96;100877.81;4949684;28;20035;-48
2021/07/29 02:09:56;;;;;;;6.13;2.05;;;;;;;13.94;78.33;100878.72;4948889;28;20058;-47
2021/07/29 02:12:21;;;;;;;5.57;1.90;;;;;;;13.87;77.58;100876.97;4947364;28;20041;-48
2021/07/29 02:14:46;;;;;;;5.82;1.67;;;;;;;13.84;76.24;100879.59;4949413;28;20037;-48
2021/07/29 02:17:12;;;;;;;9.15;2.10;;;;;;;13.79;76.62;100878.69;4948207;28;20042;-48
2021/07/29 02:19:37;;;;;;;5.30;1.55;;;;;;;13.73;76.57;100882.19;4949566;28;20473;-47
2021/07/29 02:22:02;;;;;;;7.03;2.00;;;;;;;13.67;77.86;100886.53;4948026;28;21075;-49
2021/07/29 02:24:28;;;;;;;7.38;1.80;;;;;;;13.70;75.95;100889.19;4949943;28;20027;-49
2021/07/29 02:26:53;;;;;;;5.25;1.60;;;;;;;13.69;76.62;100888.31;4947548;28;20050;-49
2021/07/29 02:29:19;;;;;;;6.95;1.52;;;;;;;13.70;75.54;100890.06;4945195;28;20229;-49
2021/07/29 02:31:44;;;;;;;4.75;1.70;;;;;;;13.68;76.79;100897.03;4948173;28;20415;-48
2021/07/29 02:34:10;;;;;;;4.47;1.65;;;;;;;13.66;76.02;100897.94;4949242;28;20039;-47
2021/07/29 02:36:35;;;;;;;5.68;1.73;;;;;;;13.63;77.11;100898.78;4947661;28;20031;-49
2021/07/29 02:39:01;;;;;;;6.45;2.05;;;;;;;13.62;77.57;100883.94;4949887;28;20030;-47
2021/07/29 02:41:26;;;;;;;5.57;2.00;;;;;;;13.57;77.99;100898.78;4951101;28;20442;-50
2021/07/29 02:43:51;;;;;;;4.15;2.17;;;;;;;13.55;78.62;100891.78;4950244;28;20546;-49
2021/07/29 02:46:17;;;;;;;10.02;1.88;;;;;;;13.56;76.44;100893.53;4952687;28;20041;-47
2021/07/29 02:48:42;;;;;;;8.13;2.00;;;;;;;13.59;77.26;100898.78;4951237;28;20062;-47
2021/07/29 02:51:08;;;;;;;6.93;2.30;;;;;;;13.59;77.29;100893.53;4950449;28;20038;-48
2021/07/29 02:53:34;;;;;;;6.88;1.95;;;;;;;13.58;77.53;100903.16;4953708;28;20042;-48
2021/07/29 02:55:59;;;;;;;5.30;1.88;;;;;;;13.61;77.95;100900.50;4950566;28;20124;-47
2021/07/29 02:58:25;;;;;;;7.53;2.20;;;;;;;13.64;78.31;100899.66;4953400;28;20406;-50
2021/07/29 03:00:55;;;;;;;7.88;2.40;;;;;;;13.65;77.48;100897.06;4952440;28;20039;-47
2021/07/29 03:03:20;;;;;;;7.28;2.20;;;;;;;13.66;77.24;100900.53;4951111;28;20038;-46
2021/07/29 03:05:46;;;;;;;7.38;2.42;;;;;;;13.67;77.79;100895.28;4954650;28;20038;-47
2021/07/29 03:08:11;;;;;;;4.95;1.77;;;;;;;13.69;77.42;100897.91;4951773;28;20031;-46
2021/07/29 03:10:37;;;;;;;9.50;2.30;;;;;;;13.63;78.36;100901.41;4953975;28;20554;-48
2021/07/29 03:13:04;;;;;;;8.18;2.30;;;;;;;13.67;78.91;100894.41;4948784;28;20050;-50
2021/07/29 03:15:30;;;;;;;9.45;2.33;;;;;;;13.70;79.45;100904.91;4951387;28;20030;-51
2021/07/29 03:17:56;;;;;;;9.85;2.60;;;;;;;13.74;80.23;100901.41;4955858;28;20034;-49
2021/07/29 03:20:22;;;;;;;9.02;2.50;;;;;;;13.87;79.40;100897.94;4949298;28;20383;-48
2021/07/29 03:22:47;;;;;;;10.98;2.50;;;;;;;13.99;78.77;100897.06;4954787;28;20030;-49
2021/07/29 03:25:12;;;;;;;7.78;2.40;;;;;;;14.08;79.58;100904.94;4948151;28;20137;-47
2021/07/29 03:27:38;;;;;;;7.93;2.40;;;;;;;14.16;79.84;100904.03;4955027;28;21280;-48
2021/07/29 03:30:04;;;;;;;7.65;2.83;;;;;;;14.19;80.15;100911.03;4944839;28;20080;-49
2021/07/29 03:32:29;;;;;;;8.50;2.55;;;;;;;14.17;80.01;100911.03;4954188;28;20480;-51
2021/07/29 03:34:55;;;;;;;11.10;2.92;;;;;;;14.14;79.94;100916.28;4951237;28;20039;-48
2021/07/29 03:37:20;;;;;;;8.07;2.45;;;;;;;13.98;79.65;100905.78;4948482;28;20058;-48
2021/07/29 03:39:45;;;;;;;8.43;2.67;;;;;;;13.93;79.66;100904.91;4950172;28;20542;-49
2021/07/29 03:42:11;;;;;;;8.60;2.63;;;;;;;13.88;79.88;100917.16;4951013;28;20626;-48
2021/07/29 03:44:36;;;;;;;11.82;2.70;;;;;;;13.83;79.87;100914.53;4949798;28;20043;-48
2021/07/29 03:47:02;;;;;;;11.30;2.83;;;;;;;13.81;80.66;100917.13;4950772;28;20516;-47
2021/07/29 03:49:27;;;;;;;15.57;3.10;;;;;;;13.79;80.82;100908.41;4949048;28;20432;-47
2021/07/29 03:51:52;;;;;;;9.55;2.83;;;;;;;13.77;80.90;100918.03;4947719;28;20022;-49
2021/07/29 03:54:18;;;;;;;13.95;2.80;;;;;;;13.77;81.29;100914.53;4951200;28;20660;-50
2021/07/29 03:56:43;;;;;;;11.07;2.63;;;;;;;13.73;80.75;100911.00;4951441;28;20039;-48
2021/07/29 03:59:08;;;;;;;9.07;3.00;;;;;;;13.72;81.35;100914.50;4951671;28;20019;-48
2021/07/29 04:01:34;;;;;;;10.65;2.92;;;;;;;13.72;81.24;100916.28;4947778;28;20494;-49
2021/07/29 04:03:59;;;;;;;13.18;3.38;;;;;;;13.79;81.67;100913.63;4951617;28;20161;-49
2021/07/29 04:06:25;;;;;;;16.30;3.10;;;;;;;13.87;81.03;100921.50;4951212;28;20170;-47
2021/07/29 04:08:50;;;;;;;14.55;3.15;;;;;;;13.96;80.25;100918.03;4949914;28;20482;-47
2021/07/29 04:11:15;;;;;;;8.73;2.72;;;;;;;14.15;79.40;100919.75;4948020;28;20035;-50
2021/07/29 04:13:41;;;;;;;11.75;2.90;;;;;;;14.28;79.17;100928.50;4952163;28;20117;-50
2021/07/29 04:16:06;;;;;;;10.10;2.65;;;;;;;14.41;79.43;100918.03;4952575;28;20483;-50
2021/07/29 04:18:32;;;;;;;9.40;2.95;;;;;;;14.51;79.20;100929.38;4950433;28;20023;-46
2021/07/29 04:20:59;;;;;;;14.73;3.28;;;;;;;14.60;78.35;100929.34;4948915;28;20420;-48
2021/07/29 04:23:24;;;;;;;12.80;3.28;;;;;;;14.68;78.13;100924.97;4950649;28;20035;-48
2021/07/29 04:25:49;;;;;;;11.57;2.50;;;;;;;14.74;77.70;100934.56;4950037;28;20121;-47
2021/07/29 04:28:15;;;;;;;12.50;2.78;;;;;;;14.76;76.93;100922.34;4951870;28;20034;-48
2021/07/29 04:30:40;;;;;;;15.27;3.08;;;;;;;14.72;77.38;100926.69;4947970;28;20114;-47
2021/07/29 04:33:09;;;;;;;12.85;3.25;;;;;;;14.67;77.63;100938.97;4950003;28;20022;-47
2021/07/29 04:35:34;;;;;;;11.25;2.85;;;;;;;14.69;77.19;100931.97;4948343;28;20039;-51
2021/07/29 04:38:00;;;;;;;9.75;2.90;;;;;;;14.66;77.48;100931.97;4952037;28;20117;-50
2021/07/29 04:40:25;;;;;;;14.38;3.28;;;;;;;14.64;77.83;100933.72;4948844;28;20595;-48
2021/07/29 04:42:50;;;;;;;11.13;2.80;;;;;;;14.68;76.67;100929.34;4950246;28;20039;-47
2021/07/29 04:45:16;;;;;;;8.45;2.70;;;;;;;14.57;76.98;100934.63;4950287;28;20035;-47
2021/07/29 04:47:41;;;;;;;10.48;2.50;;;;;;;14.53;77.70;100930.25;4951516;28;20174;-51
2021/07/29 04:50:07;;;;;;;8.52;2.40;;;;;;;14.38;78.03;100932.91;4949218;28;20379;-48
2021/07/29 04:52:32;;;;;;;14.02;2.80;;;;;;;14.37;79.03;100938.97;4948157;28;20363;-47
2021/07/29 04:54:57;;;;;;;11.43;2.70;;;;;;;14.57;78.39;100937.25;4949776;28;20050;-47
2021/07/29 04:57:23;;;;;;;10.43;2.72;;;;;;;14.71;78.03;100926.69;4949450;28;20492;-49
2021/07/29 04:59:48;;;;;;;9.15;2.40;;;;;;;15.01;76.66;100939.72;4948166;28;20059;-48
2021/07/29 05:02:17;;;;;;;11.77;2.50;;;;;;;15.56;75.28;100929.84;4949635;28;20273;-48
2021/07/29 05:04:43;;;;;;;6.82;2.40;;;;;;;15.58;74.43;100928.09;4949708;28;20205;-47
2021/07/29 05:07:11;;;;;;;10.05;2.50;;;;;;;15.78;74.62;100941.13;4950176;28;20038;-49
2021/07/29 05:09:37;;;;;;;10.55;2.45;;;;;;;15.57;75.25;100938.63;4949000;28;20037;-50
2021/07/29 05:12:03;;;;;;;7.93;2.20;;;;;;;15.61;74.24;100943.00;4950449;28;20047;-47
2021/07/29 05:14:28;;;;;;;9.02;2.55;;;;;;;15.58;74.20;100940.38;4950735;28;20058;-49
2021/07/29 05:16:54;;;;;;;8.63;2.40;;;;;;;15.67;74.01;100945.59;4950365;28;20042;-46
2021/07/29 05:19:19;;;;;;;8.10;2.50;;;;;;;15.92;74.21;100938.41;4945097;28;20034;-48
2021/07/29 05:21:44;;;;;;;9.93;2.70;;;;;;;16.07;73.75;100939.13;4953173;28;20461;-48
2021/07/29 05:24:10;;;;;;;7.57;2.47;;;;;;;16.07;73.63;100940.91;4949184;28;20522;-46
2021/07/29 05:26:35;;;;;;;10.13;2.70;;;;;;;16.12;73.38;100949.63;4948901;28;20042;-47
2021/07/29 05:29:01;;;;;;;13.80;2.85;;;;;;;16.03;73.69;100945.31;4944901;28;20078;-47
2021/07/29 05:31:26;;;;;;;13.52;3.22;;;;;;;16.12;75.54;100952.25;4951467;28;20047;-46
2021/07/29 05:33:51;;;;;;;13.60;3.67;;;;;;;16.11;75.63;100953.13;4949281;28;20077;-47
2021/07/29 05:36:17;;;;;;;16.90;3.55;;;;;;;16.06;75.63;100949.66;4949257;28;20038;-46
2021/07/29 05:38:42;;;;;;;16.63;3.65;;;;;;;16.10;75.25;100946.16;4950126;28;20330;-46
2021/07/29 05:41:08;;;;;;;12.15;3.72;;;;;;;16.17;75.32;100950.44;4945946;28;20118;-47
2021/07/29 05:43:38;;;;;;;13.57;3.33;;;;;;;15.81;77.17;100956.84;4950041;28;20097;-48
2021/07/29 05:46:11;;;;;;;9.13;3.13;;;;;;;15.74;77.10;100957.78;4958735;28;20549;-51
2021/07/29 05:48:37;;;;;;;11.57;3.13;;;;;;;15.75;77.01;100957.78;4946925;28;20584;-50
2021/07/29 05:51:02;;;;;;;22.30;3.38;;;;;;;15.81;76.59;100960.38;4945535;28;20043;-50
2021/07/29 05:53:28;;;;;;;12.73;3.13;;;;;;;15.93;76.71;100958.53;4947514;28;20033;-46
2021/07/29 05:55:56;;;;;;;13.07;3.03;;;;;;;16.12;75.80;100963.66;4945094;28;20059;-47
2021/07/29 05:58:22;;;;;;;10.10;2.90;;;;;;;16.34;75.28;100966.13;4947193;28;20405;-47
2021/07/29 06:00:47;;;;;;;13.20;3.00;;;;;;;16.62;74.86;100965.88;4944301;28;20084;-47
2021/07/29 06:03:13;;;;;;;10.45;2.60;;;;;;;16.97;72.90;100972.50;4948415;28;20841;-47
2021/07/29 06:05:38;;;;;;;10.27;2.75;;;;;;;17.22;71.08;100967.84;4943680;28;20022;-47
2021/07/29 06:08:04;;;;;;;8.00;2.30;;;;;;;17.47;68.76;100965.75;4944210;28;20109;-52
2021/07/29 06:10:29;;;;;;;14.02;2.78;;;;;;;17.39;68.56;100972.00;4945593;28;20059;-48
2021/07/29 06:12:54;;;;;;;9.82;2.20;;;;;;;17.77;66.74;100968.88;4945751;28;20907;-49
2021/07/29 06:15:20;;;;;;;8.38;2.42;;;;;;;18.82;63.85;100975.06;4947292;28;20042;-47
2021/07/29 06:17:50;;;;;;;9.45;2.60;;;;;;;19.88;60.64;100969.34;4952541;28;20114;-46
2021/07/29 06:20:15;;;;;;;11.60;2.53;;;;;;;20.86;57.18;100960.66;4946344;28;20401;-47
2021/07/29 06:22:40;;;;;;;9.70;2.40;;;;;;;21.76;53.96;100971.31;4953885;28;20031;-49
2021/07/29 06:25:08;;;;;;;11.27;2.22;;;;;;;22.60;50.97;100967.66;4950441;28;20088;-50
2021/07/29 06:27:35;;;;;;;9.75;2.00;;;;;;;23.65;46.57;100966.50;4954620;28;20054;-46
2021/07/29 06:30:00;;;;;;;9.15;2.20;;;;;;;24.22;45.39;100962.41;4951326;28;20031;-48
2021/07/29 06:32:26;;;;;;;6.45;1.88;;;;;;;24.70;43.85;100979.94;4951158;28;20366;-46
2021/07/29 06:34:51;;;;;;;10.75;2.10;;;;;;;25.04;43.72;100974.88;4951053;28;20065;-49
2021/07/29 06:37:16;;;;;;;8.63;2.00;;;;;;;25.83;44.58;100968.53;4949512;28;20031;-47
2021/07/29 06:39:42;;;;;;;10.00;2.20;;;;;;;26.52;41.34;100977.59;4952253;28;20077;-47
2021/07/29 06:42:07;;;;;;;7.20;1.88;;;;;;;26.40;40.18;100972.00;4949970;28;20031;-48
2021/07/29 06:44:32;;;;;;;10.32;2.10;;;;;;;27.16;39.64;100989.41;4941341;28;20450;-48
2021/07/29 06:46:58;;;;;;;6.53;1.85;;;;;;;27.56;37.28;100985.50;4949429;28;20419;-48
2021/07/29 06:49:31;;;;;;;6.03;1.75;;;;;;;27.53;37.48;100974.94;4941702;28;20120;-49
2021/07/29 06:51:56;;;;;;;9.55;1.80;;;;;;;26.86;38.30;100981.19;4948150;28;20498;-47
2021/07/29 06:54:22;;;;;;;8.50;1.80;;;;;;;27.04;37.65;100980.25;4948449;28;20023;-48
2021/07/29 06:56:47;;;;;;;5.65;1.60;;;;;;;27.24;36.88;100985.41;4952549;28;20041;-50
2021/07/29 06:59:13;;;;;;;8.05;1.83;;;;;;;27.15;38.56;100993.03;4947192;28;20039;-48
2021/07/29 07:01:38;;;;;;;4.95;1.75;;;;;;;26.88;38.31;100998.03;4950559;28;20029;-46
2021/07/29 07:04:03;;;;;;;8.13;1.98;;;;;;;26.56;39.47;101000.53;4943325;28;20031;-49
2021/07/29 07:06:29;;;;;;;9.10;1.75;;;;;;;27.14;39.98;101002.88;4950622;28;20226;-50
2021/07/29 07:08:54;;;;;;;5.97;1.70;;;;;;;27.15;38.81;101003.75;4942101;28;20419;-51
2021/07/29 07:11:20;;;;;;;5.65;1.80;;;;;;;27.36;38.23;101006.16;4948162;28;20023;-49
2021/07/29 07:13:47;;;;;;;9.23;2.00;;;;;;;26.98;37.80;101005.50;4951250;28;20046;-51
2021/07/29 07:16:14;;;;;;;8.23;1.77;;;;;;;26.15;40.91;101015.06;4946629;28;20033;-52
2021/07/29 07:18:40;;;;;;;7.10;1.90;;;;;;;27.04;37.26;101015.91;4949173;28;20023;-52
2021/07/29 07:21:07;;;;;;;9.20;1.70;;;;;;;26.79;37.42;101022.56;4941367;28;20038;-50
2021/07/29 07:23:34;;;;;;;5.55;1.70;;;;;;;26.97;37.47;101021.66;4948987;28;20334;-48
2021/07/29 07:25:59;;;;;;;5.90;1.92;;;;;;;26.89;38.24;101013.16;4945584;28;20040;-50
2021/07/29 07:28:24;;;;;;;7.53;1.95;;;;;;;26.46;39.62;101012.66;4941204;28;20120;-48
2021/07/29 07:30:50;;;;;;;6.82;1.90;;;;;;;26.16;39.34;101017.69;4946087;28;20034;-52
2021/07/29 07:33:15;;;;;;;10.88;1.77;;;;;;;25.84;39.63;101019.22;4944509;28;20442;-49
2021/07/29 07:35:40;;;;;;;10.70;1.90;;;;;;;25.52;40.27;101029.63;4945379;28;20114;-51
2021/07/29 07:38:06;;;;;;;6.80;1.90;;;;;;;25.32;40.68;101030.53;4951885;28;20033;-50
2021/07/29 07:40:31;;;;;;;7.88;1.98;;;;;;;24.72;41.68;101028.72;4948773;28;20025;-47
2021/07/29 07:42:57;;;;;;;7.47;1.98;;;;;;;24.52;41.43;101040.22;4947403;28;20129;-49
2021/07/29 07:45:23;;;;;;;5.90;1.95;;;;;;;24.77;42.50;101032.06;4946980;28;20032;-46
2021/07/29 07:47:48;;;;;;;7.90;2.15;;;;;;;25.73;39.90;101029.56;4951083;28;20387;-50
2021/07/29 07:50:14;;;;;;;8.38;1.88;;;;;;;25.99;39.48;101022.09;4948799;28;20354;-51
2021/07/29 07:52:39;;;;;;;7.22;1.80;;;;;;;26.31;38.54;101032.13;4949229;28;20035;-47
2021/07/29 07:55:05;;;;;;;7.53;1.80;;;;;;;26.44;39.53;101027.03;4949486;28;20138;-48
2021/07/29 07:57:30;;;;;;;6.30;1.90;;;;;;;26.87;38.82;101039.97;4946236;28;20401;-51
2021/07/29 07:59:58;;;;;;;6.55;1.60;;;;;;;26.43;38.32;101036.84;4949579;28;20444;-50
2021/07/29 08:02:24;;;;;;;7.10;2.00;;;;;;;25.84;39.68;101045.06;4948856;28;20049;-48
2021/07/29 08:04:50;;;;;;;6.80;1.95;;;;;;;25.07;42.75;101036.09;4949942;28;20521;-50
2021/07/29 08:07:15;;;;;;;9.32;2.10;;;;;;;24.91;43.10;101038.56;4948805;28;20103;-50
2021/07/29 08:09:40;;;;;;;7.70;2.17;;;;;;;25.32;40.18;101034.06;4947031;28;20031;-48
2021/07/29 08:12:06;;;;;;;10.48;2.10;;;;;;;24.79;41.50;101051.53;4949178;28;20490;-52
2021/07/29 08:14:31;;;;;;;8.45;1.90;;;;;;;24.14;42.73;101049.75;4949518;28;20062;-50
2021/07/29 08:16:56;;;;;;;8.52;1.98;;;;;;;23.45;43.33;101052.38;4951138;28;20037;-50
2021/07/29 08:19:25;;;;;;;6.13;1.90;;;;;;;23.41;44.06;101057.88;4961892;28;20050;-49
2021/07/29 08:21:50;;;;;;;5.85;2.00;;;;;;;23.68;43.14;101059.53;4950793;28;20057;-50
2021/07/29 08:24:16;;;;;;;5.82;2.22;;;;;;;23.44;44.79;101074.56;4937816;28;20406;-46
2021/07/29 08:26:41;;;;;;;6.70;2.08;;;;;;;23.35;43.40;101066.94;4948851;28;20121;-47
2021/07/29 08:29:06;;;;;;;10.07;2.60;;;;;;;23.01;45.95;101071.69;4945368;28;20054;-51
2021/07/29 08:31:32;;;;;;;9.00;2.25;;;;;;;22.95;45.46;101075.44;4946529;28;20439;-48
2021/07/29 08:33:58;;;;;;;8.50;1.98;;;;;;;22.91;44.67;101071.16;4951296;28;20138;-51
2021/07/29 08:36:24;;;;;;;6.72;2.25;;;;;;;22.71;45.47;101070.06;4950265;28;20026;-49
2021/07/29 08:38:49;;;;;;;10.35;2.35;;;;;;;22.33;46.57;101072.16;4949650;28;20027;-47
2021/07/29 08:41:16;;;;;;;6.10;2.17;;;;;;;22.57;45.81;101070.50;4945345;28;20173;-49
2021/07/29 08:43:41;;;;;;;6.95;2.28;;;;;;;22.61;46.48;101078.34;4964634;28;20463;-49
2021/07/29 08:46:07;;;;;;;7.45;2.40;;;;;;;22.62;46.61;101073.91;4955854;28;20030;-53
2021/07/29 08:48:34;;;;;;;11.75;2.08;;;;;;;22.74;45.32;101070.88;4949113;28;20315;-47
2021/07/29 08:50:59;;;;;;;6.53;1.95;;;;;;;23.09;47.96;101074.97;4947081;28;20033;-50
2021/07/29 08:53:25;;;;;;;8.27;2.00;;;;;;;23.29;45.71;101077.81;4949781;28;20019;-51
2021/07/29 08:55:54;;;;;;;5.50;2.08;;;;;;;23.48;43.35;101071.84;4949511;28;20030;-49
2021/07/29 08:58:20;;;;;;;10.63;2.13;;;;;;;23.18;43.50;101082.63;4948455;28;20058;-51
2021/07/29 09:01:02;;;;;;;6.93;2.30;;;;;;;22.99;43.80;101086.84;4949737;28;20255;-49
2021/07/29 09:03:28;;;;;;;7.78;2.30;;;;;;;22.59;45.29;101079.31;4947459;28;20448;-49
2021/07/29 09:06:00;;;;;;;8.40;2.10;;;;;;;22.27;45.40;101078.56;4949912;28;20027;-48
2021/07/29 09:08:27;;;;;;;7.22;2.00;;;;;;;22.45;47.44;101070.91;4949131;28;20158;-51
2021/07/29 09:10:52;;;;;;;7.50;2.00;;;;;;;22.80;46.41;101083.09;4949100;28;20034;-48
2021/07/29 09:13:18;;;;;;;9.13;1.83;;;;;;;22.72;45.67;101074.47;4944845;28;20102;-48
2021/07/29 09:15:45;;;;;;;9.00;2.15;;;;;;;22.89;44.56;101069.47;4951013;28;20134;-50
2021/07/29 09:18:17;;;;;;;15.80;2.20;;;;;;;22.66;43.77;101081.72;4947041;28;20035;-48
2021/07/29 09:20:43;;;;;;;7.28;1.92;;;;;;;22.96;44.98;101085.16;4943393;28;20039;-46
2021/07/29 09:23:21;;;;;;;6.20;1.95;;;;;;;22.72;45.17;101079.78;4950118;28;20036;-49
2021/07/29 09:25:59;;;;;;;6.60;2.28;;;;;;;22.87;45.43;101088.13;4959593;28;20047;-48
2021/07/29 09:28:37;;;;;;;7.30;2.20;;;;;;;23.05;44.83;101089.31;4946581;28;20438;-47
2021/07/29 09:31:20;;;;;;;6.10;2.00;;;;;;;23.01;44.42;101085.00;4946863;28;20058;-48
2021/07/29 09:34:01;;;;;;;8.13;2.30;;;;;;;23.29;43.31;101099.09;4949015;28;20031;-47
2021/07/29 09:36:31;;;;;;;5.65;1.80;;;;;;;23.04;43.72;101084.91;4946765;28;20290;-52
2021/07/29 09:39:16;;;;;;;4.90;1.80;;;;;;;23.30;43.83;101099.94;4946141;28;20125;-47
2021/07/29 09:41:41;;;;;;;8.43;1.90;;;;;;;23.31;44.64;101097.22;4947569;28;20372;-48
2021/07/29 09:44:06;;;;;;;5.90;2.00;;;;;;;23.44;44.38;101101.19;4949510;28;20062;-47
2021/07/29 09:46:32;;;;;;;7.03;2.22;;;;;;;23.10;43.11;101091.81;4949548;28;20125;-47
2021/07/29 09:48:57;;;;;;;6.13;2.10;;;;;;;22.97;42.86;101094.00;4939124;28;20034;-47
2021/07/29 09:51:23;;;;;;;8.60;2.33;;;;;;;22.87;43.86;101095.25;4950334;28;20027;-50
2021/07/29 09:53:50;;;;;;;7.38;2.03;;;;;;;23.10;45.47;101094.47;4950721;28;20035;-51
2021/07/29 09:56:15;;;;;;;8.32;1.98;;;;;;;23.32;43.47;101104.28;4948652;28;20077;-49
2021/07/29 09:58:41;;;;;;;6.63;2.17;;;;;;;23.23;42.58;101107.28;4946868;28;20118;-51
2021/07/29 10:01:07;;;;;;;9.50;2.08;;;;;;;23.23;42.76;101101.97;4953864;28;20387;-47
2021/07/29 10:03:34;;;;;;;11.75;2.40;;;;;;;23.02;42.73;101122.19;4953579;28;20483;-47
2021/07/29 10:06:06;;;;;;;9.77;2.20;;;;;;;22.71;42.21;101108.13;4948358;28;20037;-47
2021/07/29 10:08:41;;;;;;;7.50;1.90;;;;;;;22.61;44.01;101101.41;4948931;28;20062;-49
2021/07/29 10:11:12;;;;;;;5.90;2.10;;;;;;;22.78;44.21;101099.06;4950753;28;20030;-47
2021/07/29 10:13:40;;;;;;;8.77;2.30;;;;;;;22.76;44.38;101102.69;4950122;28;20046;-48
2021/07/29 10:16:06;;;;;;;7.60;2.10;;;;;;;22.92;42.85;101096.84;4946184;28;20526;-47
2021/07/29 10:18:50;;;;;;;5.70;2.10;;;;;;;23.28;45.23;101100.00;4951300;28;20546;-50
2021/07/29 10:21:28;;;;;;;10.30;2.47;;;;;;;23.22;44.50;101092.25;4945811;28;20451;-48
2021/07/29 10:24:15;;;;;;;9.80;2.20;;;;;;;23.15;42.20;101090.72;4949351;28;20514;-49
2021/07/29 10:26:59;;;;;;;6.95;2.10;;;;;;;23.07;43.33;101092.75;4945109;28;20506;-48
2021/07/29 10:29:30;;;;;;;9.45;2.15;;;;;;;23.13;43.05;101097.88;4946587;28;20037;-49
2021/07/29 10:31:59;;;;;;;5.93;1.88;;;;;;;23.11;42.36;101099.72;4950045;28;20035;-50
2021/07/29 10:34:29;;;;;;;6.75;2.05;;;;;;;23.24;42.91;101098.34;4950365;28;20058;-48
2021/07/29 10:36:56;;;;;;;4.57;1.80;;;;;;;23.39;44.07;101102.28;4963871;28;20126;-49
2021/07/29 10:39:21;;;;;;;8.02;2.15;;;;;;;23.59;44.63;101104.25;4945179;28;20027;-47
2021/07/29 10:41:51;;;;;;;7.47;2.20;;;;;;;23.49;41.54;101108.16;4953328;28;20037;-47
2021/07/29 10:44:32;;;;;;;9.57;2.55;;;;;;;23.44;42.61;101108.28;4946125;28;20555;-47
2021/07/29 10:46:57;;;;;;;10.02;2.30;;;;;;;23.36;42.65;101099.75;4949846;28;20075;-50
2021/07/29 10:49:23;;;;;;;7.30;1.98;;;;;;;23.60;43.01;101108.66;4948212;28;20031;-50
2021/07/29 10:52:03;;;;;;;7.05;1.90;;;;;;;23.88;43.48;101105.81;4946426;28;20049;-49
2021/07/29 10:54:30;;;;;;;7.25;2.10;;;;;;;23.66;40.43;101108.44;4947671;28;20390;-47
2021/07/29 10:56:57;;;;;;;8.70;2.10;;;;;;;23.71;42.04;101109.13;4948915;28;20455;-50
2021/07/29 10:59:22;;;;;;;7.03;1.92;;;;;;;23.63;42.13;101112.06;4952053;28;20037;-48
2021/07/29 11:01:48;;;;;;;4.72;1.75;;;;;;;23.74;41.94;101115.19;4965817;28;20383;-50
2021/07/29 11:04:13;;;;;;;9.40;2.10;;;;;;;23.36;41.55;101121.88;4950932;28;20043;-49
2021/07/29 11:06:42;;;;;;;8.95;2.10;;;;;;;23.28;41.63;101121.28;4947273;28;20670;-47
2021/07/29 11:09:11;;;;;;;7.25;2.00;;;;;;;23.19;41.66;101128.69;4965612;28;20128;-48
2021/07/29 11:11:38;;;;;;;8.63;1.90;;;;;;;23.38;41.86;101129.81;4951739;28;20039;-47
2021/07/29 11:14:03;;;;;;;8.25;1.80;;;;;;;23.55;40.39;101131.88;4949143;28;20511;-47
2021/07/29 11:16:29;;;;;;;7.55;1.80;;;;;;;23.49;40.62;101134.75;4952098;28;20027;-47
2021/07/29 11:18:59;;;;;;;6.47;1.75;;;;;;;23.56;41.85;101130.97;4966580;28;20550;-50
2021/07/29 11:21:25;;;;;;;8.35;2.13;;;;;;;23.68;42.43;101131.38;4963710;28;20773;-51